Time;durP1;ratioP1;P1;durP2;ratioP2;P2;SDS_P1;SDS_P2;PMS_P1;PMS_P2;Temp;Humidity;BMP_temperature;BMP_pressure;BME280_temperature;BME280_humidity;BME280_pressure;Samples;Min_cycle;Max_cycle;Signal;HPM_P1;HPM_P2
2021/08/18 00:00:42;;;;;;;8.73;6.43;;;17.20;74.00;;;;;;2609062;54;20030;-74
2021/08/18 00:03:08;;;;;;;10.60;7.50;;;17.20;74.80;;;;;;2609470;54;20078;-74
2021/08/18 00:05:34;;;;;;;10.45;7.53;;;17.20;75.20;;;;;;2609631;39;20547;-74
2021/08/18 00:08:03;;;;;;;9.27;7.80;;;17.20;75.50;;;;;;2609744;54;20038;-74
2021/08/18 00:10:30;;;;;;;9.13;7.35;;;17.20;74.10;;;;;;2609749;54;20061;-74
2021/08/18 00:12:56;;;;;;;11.73;6.60;;;17.20;74.40;;;;;;2609839;54;20035;-74
2021/08/18 00:15:23;;;;;;;9.55;7.15;;;17.20;74.50;;;;;;2609721;54;20077;-75
2021/08/18 00:17:50;;;;;;;11.50;7.22;;;17.10;75.00;;;;;;2610283;54;20043;-74
2021/08/18 00:20:16;;;;;;;10.82;7.80;;;17.10;75.60;;;;;;2610508;54;20113;-74
2021/08/18 00:22:42;;;;;;;11.55;7.80;;;17.00;75.00;;;;;;2610055;54;20042;-74
2021/08/18 00:25:08;;;;;;;11.85;7.47;;;17.00;75.30;;;;;;2610321;54;20034;-74
2021/08/18 00:27:35;;;;;;;8.90;6.85;;;17.00;75.80;;;;;;2610586;54;20146;-74
2021/08/18 00:30:01;;;;;;;12.20;7.43;;;16.90;75.80;;;;;;2610502;54;20034;-74
2021/08/18 00:32:26;;;;;;;9.80;7.05;;;16.90;76.10;;;;;;2609624;47;20046;-75
2021/08/18 00:34:52;;;;;;;9.82;6.93;;;16.90;76.20;;;;;;2610924;54;20070;-74
2021/08/18 00:37:18;;;;;;;10.73;6.85;;;16.90;75.70;;;;;;2610138;39;20455;-74
2021/08/18 00:39:44;;;;;;;11.63;6.75;;;16.90;75.50;;;;;;2609851;54;20034;-74
2021/08/18 00:42:10;;;;;;;8.10;6.97;;;16.90;76.00;;;;;;2610614;54;20038;-75
2021/08/18 00:44:39;;;;;;;12.57;7.75;;;16.90;75.80;;;;;;2611354;39;20522;-75
2021/08/18 00:47:06;;;;;;;10.45;7.38;;;16.90;74.90;;;;;;2610564;39;20714;-74
2021/08/18 00:49:32;;;;;;;11.82;7.93;;;16.90;74.70;;;;;;2611201;54;20042;-74
2021/08/18 00:51:59;;;;;;;12.32;7.75;;;16.90;74.50;;;;;;2609432;54;20049;-75
2021/08/18 00:54:25;;;;;;;10.10;7.10;;;16.90;74.80;;;;;;2609565;39;20476;-74
2021/08/18 00:56:52;;;;;;;9.07;6.78;;;16.90;74.40;;;;;;2608258;54;20031;-74
2021/08/18 00:59:19;;;;;;;11.02;7.75;;;16.90;74.20;;;;;;2608795;54;20034;-74
2021/08/18 01:01:45;;;;;;;9.73;6.97;;;16.90;74.30;;;;;;2609168;54;20042;-74
2021/08/18 01:04:14;;;;;;;9.48;7.28;;;16.90;74.40;;;;;;2610411;54;20038;-74
2021/08/18 01:06:45;;;;;;;9.57;6.45;;;16.90;74.60;;;;;;2611556;31;20555;-74
2021/08/18 01:09:17;;;;;;;10.23;7.05;;;16.90;75.10;;;;;;2610512;54;20034;-74
2021/08/18 01:11:46;;;;;;;9.52;7.35;;;16.90;74.30;;;;;;2610374;54;20038;-75
2021/08/18 01:14:12;;;;;;;11.20;7.22;;;16.90;74.40;;;;;;2609368;54;20039;-74
2021/08/18 01:16:43;;;;;;;10.35;7.07;;;16.80;74.60;;;;;;2609718;54;20037;-74
2021/08/18 01:19:10;;;;;;;11.48;6.85;;;16.80;74.70;;;;;;2610117;54;20038;-74
2021/08/18 01:21:40;;;;;;;10.52;6.68;;;16.80;74.60;;;;;;2609291;54;20038;-74
2021/08/18 01:24:08;;;;;;;9.77;6.97;;;16.80;74.80;;;;;;2610110;54;20059;-74
2021/08/18 01:26:36;;;;;;;8.30;6.15;;;16.80;74.50;;;;;;2610170;39;20459;-74
2021/08/18 01:29:02;;;;;;;9.38;6.40;;;16.80;75.10;;;;;;2609810;54;20030;-74
2021/08/18 01:31:28;;;;;;;8.60;6.57;;;16.90;74.60;;;;;;2610120;54;20145;-74
2021/08/18 01:34:00;;;;;;;9.43;6.10;;;16.90;74.30;;;;;;2609934;54;20049;-74
2021/08/18 01:36:26;;;;;;;8.95;6.57;;;16.80;74.60;;;;;;2610740;39;20812;-74
2021/08/18 01:38:52;;;;;;;8.38;6.40;;;16.90;74.40;;;;;;2609434;47;20026;-74
2021/08/18 01:41:17;;;;;;;10.75;6.70;;;16.80;74.20;;;;;;2609540;54;20026;-74
2021/08/18 01:43:43;;;;;;;9.02;6.13;;;16.90;74.10;;;;;;2610852;39;20442;-74
2021/08/18 01:46:10;;;;;;;9.20;6.40;;;16.80;74.50;;;;;;2609561;54;20035;-74
2021/08/18 01:48:37;;;;;;;7.90;6.20;;;16.80;75.10;;;;;;2610241;54;20130;-74
2021/08/18 01:51:03;;;;;;;10.40;7.07;;;16.80;74.70;;;;;;2610246;54;20050;-74
2021/08/18 01:53:32;;;;;;;8.73;6.30;;;16.80;74.00;;;;;;2610211;54;20063;-74
2021/08/18 01:56:01;;;;;;;9.07;6.50;;;16.80;74.60;;;;;;2610591;39;20391;-74
2021/08/18 01:58:27;;;;;;;8.95;6.70;;;16.80;74.90;;;;;;2609714;47;20031;-74
2021/08/18 02:00:53;;;;;;;8.95;6.57;;;16.80;75.10;;;;;;2609555;54;20056;-74
2021/08/18 02:03:20;;;;;;;9.55;6.13;;;16.80;75.00;;;;;;2609578;54;20046;-74
2021/08/18 02:05:46;;;;;;;9.93;6.53;;;16.80;74.80;;;;;;2610216;54;20034;-74
2021/08/18 02:08:11;;;;;;;8.15;6.35;;;16.80;74.30;;;;;;2610156;54;20066;-74
2021/08/18 02:10:37;;;;;;;8.55;6.38;;;16.70;75.10;;;;;;2610265;54;20037;-74
2021/08/18 02:13:03;;;;;;;10.00;6.38;;;16.80;74.60;;;;;;2610019;54;20030;-75
2021/08/18 02:15:31;;;;;;;10.32;6.65;;;16.70;74.90;;;;;;2609667;54;20038;-74
2021/08/18 02:17:59;;;;;;;7.47;5.65;;;16.70;75.50;;;;;;2610169;54;20589;-75
2021/08/18 02:20:27;;;;;;;8.18;6.43;;;16.60;75.80;;;;;;2610619;54;20063;-74
2021/08/18 02:22:54;;;;;;;6.40;5.75;;;16.60;75.50;;;;;;2610128;54;20069;-74
2021/08/18 02:25:20;;;;;;;11.77;6.80;;;16.60;75.60;;;;;;2610691;54;20038;-74
2021/08/18 02:27:46;;;;;;;9.05;5.88;;;16.60;75.70;;;;;;2610460;39;20430;-74
2021/08/18 02:30:15;;;;;;;9.02;6.38;;;16.60;75.80;;;;;;2610624;54;20031;-74
2021/08/18 02:32:41;;;;;;;8.35;6.50;;;16.60;75.60;;;;;;2610380;54;20563;-74
2021/08/18 02:35:08;;;;;;;7.97;6.47;;;16.60;75.40;;;;;;2609906;54;20034;-74
2021/08/18 02:37:35;;;;;;;8.75;6.65;;;16.60;75.80;;;;;;2610565;54;20030;-75
2021/08/18 02:40:02;;;;;;;9.73;6.63;;;16.60;75.90;;;;;;2610257;54;20030;-75
2021/08/18 02:42:28;;;;;;;7.75;6.07;;;16.60;76.40;;;;;;2610362;54;20042;-74
2021/08/18 02:44:54;;;;;;;8.48;5.75;;;16.50;76.40;;;;;;2610686;54;20040;-74
2021/08/18 02:47:20;;;;;;;9.43;6.40;;;16.50;76.70;;;;;;2610288;54;20035;-74
2021/08/18 02:49:45;;;;;;;7.53;5.75;;;16.60;76.60;;;;;;2610432;54;20035;-74
2021/08/18 02:52:11;;;;;;;8.55;6.05;;;16.60;76.40;;;;;;2609859;54;20034;-75
2021/08/18 02:54:37;;;;;;;8.38;6.22;;;16.60;76.50;;;;;;2609856;54;20041;-74
2021/08/18 02:57:03;;;;;;;10.70;6.18;;;16.60;76.70;;;;;;2610408;54;20038;-74
2021/08/18 02:59:28;;;;;;;8.40;6.22;;;16.50;75.90;;;;;;2610348;54;20038;-74
2021/08/18 03:01:54;;;;;;;7.57;5.75;;;16.50;76.40;;;;;;2610285;54;20306;-74
2021/08/18 03:04:19;;;;;;;8.57;6.10;;;16.40;76.80;;;;;;2610617;39;20530;-74
2021/08/18 03:06:45;;;;;;;8.20;5.93;;;16.40;76.60;;;;;;2609832;54;20045;-74
2021/08/18 03:09:11;;;;;;;8.05;6.30;;;16.40;76.50;;;;;;2609704;54;20678;-74
2021/08/18 03:11:37;;;;;;;8.43;6.53;;;16.40;76.60;;;;;;2609590;54;20038;-75
2021/08/18 03:14:03;;;;;;;9.38;6.22;;;16.40;76.90;;;;;;2609532;54;20030;-74
2021/08/18 03:16:29;;;;;;;8.93;5.88;;;16.40;76.30;;;;;;2609804;54;20041;-74
2021/08/18 03:18:55;;;;;;;10.57;6.05;;;16.30;76.80;;;;;;2609044;54;20030;-74
2021/08/18 03:21:21;;;;;;;9.07;6.45;;;16.30;77.30;;;;;;2610067;46;20056;-75
2021/08/18 03:23:47;;;;;;;12.02;6.32;;;16.30;76.90;;;;;;2609778;54;20644;-74
2021/08/18 03:26:13;;;;;;;8.38;6.07;;;16.20;77.00;;;;;;2610461;39;20715;-74
2021/08/18 03:28:38;;;;;;;9.15;7.07;;;16.10;77.20;;;;;;2610284;54;20038;-74
2021/08/18 03:31:04;;;;;;;7.63;6.10;;;16.10;77.30;;;;;;2610108;54;20579;-74
2021/08/18 03:33:30;;;;;;;10.32;7.18;;;16.10;77.70;;;;;;2610125;39;20249;-74
2021/08/18 03:35:55;;;;;;;9.23;6.82;;;16.10;77.40;;;;;;2609569;54;20550;-74
2021/08/18 03:38:21;;;;;;;9.38;6.50;;;16.10;77.20;;;;;;2609633;54;20157;-74
2021/08/18 03:40:47;;;;;;;9.90;6.32;;;16.10;77.10;;;;;;2609077;54;20150;-74
2021/08/18 03:43:13;;;;;;;8.60;5.82;;;16.10;77.50;;;;;;2609577;54;20034;-74
2021/08/18 03:45:39;;;;;;;10.27;6.15;;;16.10;78.00;;;;;;2609627;54;20058;-74
2021/08/18 03:48:05;;;;;;;8.07;5.50;;;16.10;77.50;;;;;;2609376;54;20571;-74
2021/08/18 03:50:31;;;;;;;6.93;5.63;;;16.10;77.60;;;;;;2609910;54;20621;-74
2021/08/18 03:52:57;;;;;;;8.88;6.30;;;16.20;77.60;;;;;;2609599;51;20589;-74
2021/08/18 03:55:22;;;;;;;8.48;5.50;;;16.20;77.60;;;;;;2610386;54;20077;-74
2021/08/18 03:57:48;;;;;;;8.20;5.55;;;16.20;76.90;;;;;;2610437;54;20104;-74
2021/08/18 04:00:14;;;;;;;9.77;6.38;;;16.20;77.50;;;;;;2610614;54;20044;-74
2021/08/18 04:06:08;;;;;;;;;;;16.20;77.20;;;;;;2611005;54;20030;-74
2021/08/18 04:08:34;;;;;;;6.87;5.10;;;16.20;77.20;;;;;;2610753;54;20049;-74
2021/08/18 04:11:04;;;;;;;8.25;6.07;;;16.20;77.40;;;;;;2611180;54;20049;-74
2021/08/18 04:13:30;;;;;;;7.78;5.55;;;16.20;77.00;;;;;;2610479;47;20031;-74
2021/08/18 04:15:55;;;;;;;9.75;6.63;;;16.20;77.30;;;;;;2610797;54;20061;-74
2021/08/18 04:18:21;;;;;;;7.68;5.80;;;16.10;77.50;;;;;;2611054;54;20049;-74
2021/08/18 04:20:46;;;;;;;9.65;6.22;;;16.10;77.60;;;;;;2610450;54;20878;-74
2021/08/18 04:23:12;;;;;;;8.43;5.93;;;16.00;77.30;;;;;;2610710;54;20045;-74
2021/08/18 04:25:38;;;;;;;7.78;5.63;;;16.00;77.80;;;;;;2611008;54;20550;-74
2021/08/18 04:28:05;;;;;;;6.18;4.80;;;15.90;78.40;;;;;;2610826;54;20137;-74
2021/08/18 04:30:31;;;;;;;7.10;5.30;;;15.80;78.80;;;;;;2610280;54;20052;-74
2021/08/18 04:32:56;;;;;;;7.63;5.75;;;15.90;79.40;;;;;;2610927;54;20041;-75
2021/08/18 04:35:22;;;;;;;7.53;5.85;;;15.90;79.30;;;;;;2611003;54;20039;-74
2021/08/18 04:37:48;;;;;;;6.63;5.25;;;15.90;79.80;;;;;;2610874;54;20150;-74
2021/08/18 04:40:15;;;;;;;7.40;5.55;;;16.00;79.00;;;;;;2610943;54;20042;-74
2021/08/18 04:42:43;;;;;;;10.75;5.53;;;16.00;78.50;;;;;;2610196;47;20574;-74
2021/08/18 04:45:11;;;;;;;6.10;5.13;;;16.00;78.60;;;;;;2610607;54;20034;-73
2021/08/18 04:47:37;;;;;;;7.28;5.40;;;16.10;78.70;;;;;;2610798;54;20038;-73
2021/08/18 04:50:07;;;;;;;7.22;5.15;;;16.10;79.00;;;;;;2611109;54;20061;-73
2021/08/18 04:52:33;;;;;;;7.18;4.88;;;16.10;78.00;;;;;;2610967;54;20087;-73
2021/08/18 04:54:59;;;;;;;6.88;4.75;;;16.10;78.60;;;;;;2610708;54;20855;-74
2021/08/18 04:57:25;;;;;;;6.45;4.88;;;16.10;78.40;;;;;;2610505;54;20634;-73
2021/08/18 04:59:50;;;;;;;7.18;5.00;;;16.20;78.20;;;;;;2610123;54;20960;-74
2021/08/18 05:02:16;;;;;;;6.40;4.80;;;16.20;78.40;;;;;;2610179;54;20034;-74
2021/08/18 05:04:42;;;;;;;10.73;5.70;;;16.20;77.90;;;;;;2610385;54;20075;-74
2021/08/18 05:07:07;;;;;;;6.13;4.53;;;16.30;77.90;;;;;;2610774;54;20034;-72
2021/08/18 05:09:33;;;;;;;7.05;5.43;;;16.30;77.70;;;;;;2610018;54;20042;-73
2021/08/18 05:11:59;;;;;;;7.82;5.15;;;16.30;78.20;;;;;;2610085;54;20038;-73
2021/08/18 05:14:25;;;;;;;6.30;4.72;;;16.30;77.70;;;;;;2609741;54;20030;-73
2021/08/18 05:16:51;;;;;;;6.82;4.95;;;16.30;77.90;;;;;;2609935;39;20498;-73
2021/08/18 05:19:17;;;;;;;8.48;4.57;;;16.30;77.80;;;;;;2610039;54;20046;-74
2021/08/18 05:21:43;;;;;;;8.63;5.40;;;16.30;78.00;;;;;;2610269;54;20665;-74
2021/08/18 05:24:08;;;;;;;5.70;4.53;;;16.30;77.60;;;;;;2605626;54;20066;-75
2021/08/18 05:26:34;;;;;;;5.90;4.18;;;16.40;77.60;;;;;;2608234;54;20038;-75
2021/08/18 05:29:00;;;;;;;6.05;4.40;;;16.30;77.80;;;;;;2607720;54;20153;-74
2021/08/18 05:31:25;;;;;;;6.43;4.40;;;16.40;78.30;;;;;;2607502;54;20034;-74
2021/08/18 05:33:51;;;;;;;5.57;4.05;;;16.40;78.00;;;;;;2606949;54;20058;-74
2021/08/18 05:36:17;;;;;;;5.47;4.47;;;16.50;77.40;;;;;;2607405;54;20034;-74
2021/08/18 05:38:43;;;;;;;6.47;4.47;;;16.50;77.20;;;;;;2604077;54;20091;-73
2021/08/18 05:41:10;;;;;;;6.20;4.40;;;16.60;76.90;;;;;;2609800;54;20055;-73
2021/08/18 05:43:36;;;;;;;6.32;3.97;;;16.70;76.40;;;;;;2611013;54;20036;-76
2021/08/18 05:46:02;;;;;;;5.60;3.92;;;16.70;76.30;;;;;;2610396;54;20034;-74
2021/08/18 05:48:27;;;;;;;6.13;4.30;;;16.70;76.00;;;;;;2610002;54;20063;-71
2021/08/18 05:50:53;;;;;;;6.60;4.05;;;16.60;76.40;;;;;;2609915;54;20157;-74
2021/08/18 05:53:19;;;;;;;6.15;4.35;;;16.60;76.50;;;;;;2610713;54;20031;-75
2021/08/18 05:55:47;;;;;;;6.13;4.00;;;16.60;76.10;;;;;;2610347;54;20034;-74
2021/08/18 05:58:12;;;;;;;5.90;4.22;;;16.60;76.80;;;;;;2610656;54;20031;-75
2021/08/18 06:00:38;;;;;;;5.72;3.97;;;16.50;76.90;;;;;;2611149;39;20440;-75
2021/08/18 06:03:04;;;;;;;5.75;4.07;;;16.60;76.90;;;;;;2610544;54;20037;-75
2021/08/18 06:05:30;;;;;;;7.70;4.90;;;16.60;76.80;;;;;;2610461;54;20045;-78
2021/08/18 06:07:56;;;;;;;5.43;4.18;;;16.60;76.90;;;;;;2609962;54;20034;-76
2021/08/18 06:10:22;;;;;;;5.25;3.45;;;16.60;77.00;;;;;;2609715;54;20035;-75
2021/08/18 06:12:47;;;;;;;6.05;3.75;;;16.60;77.30;;;;;;2609450;47;20030;-74
2021/08/18 06:15:13;;;;;;;4.80;3.83;;;16.60;77.30;;;;;;2610246;54;20882;-75
2021/08/18 06:17:39;;;;;;;8.02;4.05;;;16.70;76.90;;;;;;2610095;54;20145;-75
2021/08/18 06:20:05;;;;;;;6.00;3.90;;;16.80;77.00;;;;;;2610192;54;20030;-75
2021/08/18 06:22:31;;;;;;;9.13;4.07;;;16.80;76.20;;;;;;2610515;54;20042;-75
2021/08/18 06:25:01;;;;;;;6.40;4.35;;;16.90;76.10;;;;;;2610347;54;20042;-75
2021/08/18 06:27:27;;;;;;;5.25;3.40;;;17.00;75.60;;;;;;2610480;54;20038;-75
2021/08/18 06:29:53;;;;;;;5.65;3.83;;;17.10;75.70;;;;;;2611255;54;20035;-74
2021/08/18 06:32:19;;;;;;;4.13;3.25;;;17.10;75.80;;;;;;2610905;54;20049;-75
2021/08/18 06:34:44;;;;;;;5.50;3.50;;;17.20;74.40;;;;;;2610544;54;20072;-78
2021/08/18 06:37:10;;;;;;;4.18;3.42;;;17.20;75.20;;;;;;2610073;54;20030;-75
2021/08/18 06:39:37;;;;;;;5.22;3.83;;;17.30;74.90;;;;;;2610514;54;20070;-73
2021/08/18 06:42:03;;;;;;;4.53;3.28;;;17.50;74.30;;;;;;2611348;39;20450;-73
2021/08/18 06:44:30;;;;;;;4.20;3.40;;;17.50;73.90;;;;;;2611251;54;20178;-73
2021/08/18 06:46:55;;;;;;;10.30;4.32;;;17.50;74.60;;;;;;2610768;54;20036;-74
2021/08/18 06:49:21;;;;;;;5.00;3.65;;;17.70;74.00;;;;;;2610396;47;20574;-73
2021/08/18 06:51:47;;;;;;;3.95;3.15;;;17.70;74.20;;;;;;2611644;54;20034;-76
2021/08/18 06:54:12;;;;;;;8.45;3.33;;;17.80;74.10;;;;;;2611580;54;20165;-76
2021/08/18 06:56:38;;;;;;;5.03;2.78;;;18.00;72.80;;;;;;2611150;54;20182;-76
2021/08/18 06:59:03;;;;;;;4.55;2.92;;;18.10;71.90;;;;;;2611184;54;20038;-76
2021/08/18 07:01:29;;;;;;;7.10;2.97;;;18.10;72.00;;;;;;2609746;54;20030;-76
2021/08/18 07:03:55;;;;;;;4.32;3.10;;;18.10;72.70;;;;;;2610815;54;20045;-76
2021/08/18 07:06:20;;;;;;;6.85;3.25;;;18.20;72.90;;;;;;2609963;54;20049;-76
2021/08/18 07:08:46;;;;;;;5.53;3.13;;;18.40;71.30;;;;;;2609831;54;20844;-76
2021/08/18 07:11:12;;;;;;;6.25;3.35;;;18.60;70.50;;;;;;2609617;54;20041;-76
2021/08/18 07:13:38;;;;;;;3.50;2.60;;;18.70;69.80;;;;;;2605387;54;20038;-76
2021/08/18 07:16:05;;;;;;;4.53;2.63;;;18.60;69.70;;;;;;2609842;54;20041;-76
2021/08/18 07:18:31;;;;;;;4.20;3.00;;;18.50;69.40;;;;;;2609196;54;20042;-77
2021/08/18 07:20:57;;;;;;;3.95;2.67;;;18.50;69.90;;;;;;2610179;54;20079;-77
2021/08/18 07:23:23;;;;;;;4.13;2.50;;;18.50;69.40;;;;;;2610179;54;20165;-77
2021/08/18 07:25:49;;;;;;;5.60;2.22;;;18.50;69.50;;;;;;2610321;54;20034;-77
2021/08/18 07:28:15;;;;;;;5.00;2.72;;;18.50;69.60;;;;;;2609760;54;20035;-76
2021/08/18 07:30:41;;;;;;;3.60;2.70;;;18.50;69.10;;;;;;2610544;54;20047;-77
2021/08/18 07:33:06;;;;;;;7.60;2.63;;;18.70;68.30;;;;;;2610225;54;20042;-77
2021/08/18 07:35:32;;;;;;;5.22;2.70;;;18.90;69.10;;;;;;2610670;54;20030;-77
2021/08/18 07:37:58;;;;;;;4.55;2.35;;;18.90;67.80;;;;;;2610282;54;20065;-77
2021/08/18 07:40:24;;;;;;;3.55;2.28;;;19.00;68.20;;;;;;2609142;54;20034;-77
2021/08/18 07:42:52;;;;;;;6.72;2.33;;;19.10;68.80;;;;;;2609294;54;20034;-77
2021/08/18 07:45:18;;;;;;;3.22;2.17;;;19.30;68.00;;;;;;2609512;54;20118;-77
2021/08/18 07:47:45;;;;;;;4.97;2.20;;;19.30;68.70;;;;;;2610225;39;20733;-77
2021/08/18 07:50:11;;;;;;;2.88;1.92;;;19.40;67.70;;;;;;2609949;39;20438;-77
2021/08/18 07:52:37;;;;;;;4.40;2.55;;;19.40;66.50;;;;;;2609635;54;20038;-77
2021/08/18 07:55:05;;;;;;;5.72;3.78;;;19.30;66.60;;;;;;2609628;54;20042;-76
2021/08/18 07:57:34;;;;;;;99.28;83.70;;;19.20;67.20;;;;;;2609379;54;20035;-77
2021/08/18 08:00:00;;;;;;;23.83;21.23;;;19.20;68.20;;;;;;2609450;54;20042;-77
2021/08/18 08:02:25;;;;;;;43.42;36.55;;;19.30;68.10;;;;;;2609800;54;20049;-77
2021/08/18 08:04:51;;;;;;;10.52;8.65;;;19.30;69.00;;;;;;2610049;54;20034;-77
2021/08/18 08:07:17;;;;;;;5.07;4.43;;;19.40;68.20;;;;;;2609172;54;20049;-77
2021/08/18 08:09:42;;;;;;;3.65;2.60;;;19.60;66.90;;;;;;2610650;39;20447;-77
2021/08/18 08:12:08;;;;;;;16.73;11.48;;;19.70;66.40;;;;;;2609736;54;20030;-77
2021/08/18 08:14:34;;;;;;;4.70;4.15;;;19.80;66.60;;;;;;2609874;54;20037;-77
2021/08/18 08:17:00;;;;;;;2.40;2.20;;;19.90;66.20;;;;;;2609664;39;20255;-77
2021/08/18 08:19:26;;;;;;;4.47;2.53;;;20.00;66.70;;;;;;2609639;54;20038;-77
2021/08/18 08:21:51;;;;;;;2.85;2.58;;;20.10;66.60;;;;;;2610515;39;20700;-77
2021/08/18 08:24:17;;;;;;;4.82;2.95;;;20.20;65.50;;;;;;2610299;54;20034;-77
2021/08/18 08:26:43;;;;;;;3.00;2.33;;;20.20;65.10;;;;;;2610087;54;20037;-77
2021/08/18 08:29:09;;;;;;;3.90;2.58;;;20.00;65.20;;;;;;2609210;47;20134;-77
2021/08/18 08:31:35;;;;;;;2.95;2.47;;;19.90;65.90;;;;;;2610248;54;20057;-77
2021/08/18 08:34:01;;;;;;;3.03;2.13;;;19.90;65.80;;;;;;2609698;54;20122;-77
2021/08/18 08:36:27;;;;;;;5.55;2.70;;;20.00;65.50;;;;;;2611035;54;20031;-77
2021/08/18 08:38:52;;;;;;;4.97;2.47;;;19.90;66.20;;;;;;2610573;54;20034;-77
2021/08/18 08:41:19;;;;;;;3.10;2.20;;;20.00;66.50;;;;;;2611949;39;20551;-76
2021/08/18 08:43:45;;;;;;;3.50;2.20;;;20.00;66.50;;;;;;2611724;54;20077;-76
2021/08/18 08:46:12;;;;;;;1.63;1.50;;;20.00;67.00;;;;;;2611413;54;20667;-76
2021/08/18 08:48:41;;;;;;;2.35;1.98;;;20.00;67.50;;;;;;2610588;47;20588;-77
2021/08/18 08:51:08;;;;;;;2.17;1.90;;;19.90;67.30;;;;;;2611852;39;20300;-76
2021/08/18 08:53:34;;;;;;;2.85;2.08;;;19.90;66.70;;;;;;2610960;54;20045;-77
2021/08/18 08:56:01;;;;;;;2.72;2.28;;;19.70;67.10;;;;;;2610866;54;20031;-77
2021/08/18 08:58:27;;;;;;;3.38;2.00;;;19.50;68.50;;;;;;2610812;54;20142;-77
2021/08/18 09:00:52;;;;;;;2.63;1.95;;;19.50;67.70;;;;;;2611521;54;20034;-77
2021/08/18 09:03:23;;;;;;;2.30;1.90;;;19.40;68.10;;;;;;2611009;54;20125;-77
2021/08/18 09:05:50;;;;;;;3.13;1.85;;;19.30;68.60;;;;;;2611083;54;20598;-76
2021/08/18 09:08:21;;;;;;;1.70;1.58;;;19.20;68.90;;;;;;2609287;54;20881;-73
2021/08/18 09:11:10;;;;;;;2.55;2.10;;;19.10;68.80;;;;;;2609820;54;20038;-72
2021/08/18 09:13:40;;;;;;;4.20;1.92;;;19.00;69.30;;;;;;2608968;54;20067;-72
2021/08/18 09:16:06;;;;;;;2.22;1.80;;;19.00;69.40;;;;;;2609980;54;20042;-77
2021/08/18 09:18:37;;;;;;;1.85;1.73;;;19.00;70.50;;;;;;2609733;54;20034;-76
2021/08/18 09:21:21;;;;;;;2.50;1.73;;;19.10;70.20;;;;;;2610230;54;20041;-76
2021/08/18 09:23:47;;;;;;;2.22;1.83;;;19.20;70.20;;;;;;2609979;54;20177;-76
2021/08/18 09:26:20;;;;;;;3.63;2.00;;;19.40;70.30;;;;;;2609798;54;20125;-76
2021/08/18 09:28:47;;;;;;;2.35;1.90;;;19.60;68.90;;;;;;2609110;54;20129;-76
2021/08/18 09:31:24;;;;;;;3.45;1.92;;;19.60;69.20;;;;;;2610062;54;20042;-73
2021/08/18 09:33:59;;;;;;;2.58;1.90;;;19.60;68.20;;;;;;2608884;47;20026;-71
2021/08/18 09:36:27;;;;;;;1.75;1.55;;;19.60;68.30;;;;;;2611292;39;20485;-73
2021/08/18 09:39:22;;;;;;;2.08;1.80;;;19.60;68.90;;;;;;2609362;54;20057;-76
2021/08/18 09:41:48;;;;;;;1.90;1.70;;;19.60;68.80;;;;;;2610318;54;20094;-74
2021/08/18 09:44:14;;;;;;;4.28;2.30;;;19.70;68.50;;;;;;2609853;54;20547;-75
2021/08/18 09:46:40;;;;;;;2.33;1.90;;;19.70;67.90;;;;;;2610085;54;20041;-77
2021/08/18 09:49:10;;;;;;;2.70;1.90;;;19.60;68.60;;;;;;2609533;47;20038;-74
2021/08/18 09:51:37;;;;;;;3.63;1.90;;;19.70;69.00;;;;;;2610495;46;20050;-75
2021/08/18 09:54:14;;;;;;;4.30;2.10;;;19.80;68.50;;;;;;2610509;54;20067;-76
2021/08/18 09:56:46;;;;;;;5.40;2.10;;;19.80;67.90;;;;;;2609882;54;20031;-76
2021/08/18 09:59:12;;;;;;;2.47;1.80;;;19.90;68.20;;;;;;2610491;54;20079;-75
2021/08/18 10:01:39;;;;;;;1.90;1.70;;;20.00;67.80;;;;;;2610461;54;20038;-75
2021/08/18 10:04:05;;;;;;;4.28;2.03;;;20.10;66.40;;;;;;2609953;54;20030;-74
2021/08/18 10:06:32;;;;;;;2.15;1.95;;;20.20;66.90;;;;;;2610733;54;20133;-76
2021/08/18 10:08:58;;;;;;;1.58;1.42;;;20.30;66.50;;;;;;2610689;54;20046;-74
2021/08/18 10:11:26;;;;;;;2.25;1.80;;;20.30;65.10;;;;;;2610505;54;20065;-74
2021/08/18 10:13:52;;;;;;;3.13;1.85;;;20.30;65.80;;;;;;2610362;54;20045;-74
2021/08/18 10:16:19;;;;;;;2.03;1.80;;;20.40;64.20;;;;;;2610099;54;20059;-74
2021/08/18 10:18:48;;;;;;;2.95;1.60;;;20.60;62.40;;;;;;2608902;54;20162;-75
2021/08/18 10:21:22;;;;;;;2.42;1.70;;;20.80;62.20;;;;;;2609876;54;20588;-74
2021/08/18 10:24:01;;;;;;;4.00;2.10;;;21.30;60.00;;;;;;2609750;54;20152;-75
2021/08/18 10:26:33;;;;;;;2.42;1.90;;;21.70;60.00;;;;;;2609217;47;20038;-75
2021/08/18 10:29:07;;;;;;;6.35;1.90;;;22.00;58.10;;;;;;2608996;54;20570;-75
2021/08/18 10:31:42;;;;;;;3.28;1.60;;;22.00;57.40;;;;;;2609884;54;20046;-75
2021/08/18 10:34:26;;;;;;;4.95;1.70;;;22.00;59.10;;;;;;2609204;54;20042;-75
2021/08/18 10:36:53;;;;;;;1.88;1.73;;;21.90;57.10;;;;;;2609723;54;20579;-74
2021/08/18 10:39:19;;;;;;;3.80;1.90;;;22.00;56.00;;;;;;2609975;54;20038;-75
2021/08/18 10:42:13;;;;;;;3.22;1.92;;;22.00;58.10;;;;;;2609965;54;20045;-75
2021/08/18 10:44:51;;;;;;;3.25;1.95;;;22.10;56.60;;;;;;2609857;54;20694;-75
2021/08/18 10:47:22;;;;;;;2.40;1.73;;;22.10;55.80;;;;;;2609500;54;20034;-75
2021/08/18 10:49:59;;;;;;;6.15;2.15;;;22.00;57.00;;;;;;2609446;54;20038;-74
2021/08/18 10:52:28;;;;;;;3.03;1.80;;;22.00;57.80;;;;;;2609342;54;20069;-75
2021/08/18 10:55:13;;;;;;;3.00;1.67;;;21.90;54.90;;;;;;2608864;54;21063;-75
2021/08/18 10:57:49;;;;;;;3.30;1.80;;;21.90;54.50;;;;;;2609148;54;20039;-76
2021/08/18 11:00:33;;;;;;;2.13;1.90;;;22.00;55.40;;;;;;2609463;54;20991;-75
2021/08/18 11:03:26;;;;;;;2.33;1.55;;;22.10;55.70;;;;;;2609371;54;20035;-75
2021/08/18 11:05:54;;;;;;;2.67;1.42;;;22.00;54.40;;;;;;2607967;54;20039;-78
2021/08/18 11:08:40;;;;;;;2.28;2.00;;;21.90;54.10;;;;;;2609250;39;20562;-75
2021/08/18 11:11:08;;;;;;;3.80;2.00;;;21.90;55.10;;;;;;2609403;54;20045;-75
2021/08/18 11:14:07;;;;;;;2.85;1.85;;;21.90;55.10;;;;;;2609132;54;20038;-75
2021/08/18 11:16:32;;;;;;;2.22;1.83;;;21.60;55.10;;;;;;2609549;54;20063;-75
2021/08/18 11:19:12;;;;;;;7.15;2.58;;;21.50;55.80;;;;;;2608678;54;20645;-75
2021/08/18 11:21:40;;;;;;;4.25;1.92;;;21.40;56.90;;;;;;2609645;54;20674;-75
2021/08/18 11:24:12;;;;;;;4.32;1.90;;;21.40;57.90;;;;;;2608674;54;20126;-75
2021/08/18 11:26:42;;;;;;;4.40;2.10;;;21.50;56.20;;;;;;2609852;54;20042;-75
2021/08/18 11:29:30;;;;;;;3.63;1.92;;;21.60;56.40;;;;;;2608899;54;20185;-75
2021/08/18 11:31:56;;;;;;;3.80;2.28;;;21.80;55.70;;;;;;2609046;54;20618;-75
2021/08/18 11:34:31;;;;;;;3.47;2.03;;;21.90;55.70;;;;;;2608732;54;20038;-74
2021/08/18 11:37:08;;;;;;;2.42;1.90;;;22.00;55.40;;;;;;2608961;54;20039;-75
2021/08/18 11:39:44;;;;;;;2.75;1.50;;;22.10;55.90;;;;;;2609026;54;20034;-75
2021/08/18 11:42:20;;;;;;;3.25;1.90;;;22.10;55.50;;;;;;2609345;54;20038;-75
2021/08/18 11:44:48;;;;;;;7.18;1.65;;;22.10;56.00;;;;;;2608577;54;20882;-75
2021/08/18 11:47:16;;;;;;;1.73;1.45;;;22.10;55.20;;;;;;2609013;54;20034;-75
2021/08/18 11:49:43;;;;;;;3.80;1.55;;;21.90;55.90;;;;;;2607869;47;20687;-75
2021/08/18 11:52:15;;;;;;;4.97;2.00;;;21.70;57.10;;;;;;2609712;54;20555;-75
2021/08/18 11:54:41;;;;;;;4.60;1.65;;;21.60;56.40;;;;;;2609995;54;20034;-75
2021/08/18 11:57:08;;;;;;;4.15;1.92;;;21.40;56.90;;;;;;2609418;54;20563;-75
2021/08/18 11:59:35;;;;;;;3.95;1.88;;;21.10;57.70;;;;;;2610575;39;20253;-75
2021/08/18 12:02:02;;;;;;;2.38;1.50;;;20.90;60.20;;;;;;2610067;54;20039;-75
2021/08/18 12:04:29;;;;;;;6.78;1.92;;;20.90;59.70;;;;;;2610702;54;20058;-75
2021/08/18 12:07:11;;;;;;;3.47;1.60;;;20.90;61.00;;;;;;2609701;54;20041;-75
2021/08/18 12:09:37;;;;;;;1.75;1.33;;;21.00;61.10;;;;;;2609758;54;20041;-74
2021/08/18 12:12:09;;;;;;;6.75;1.40;;;21.00;60.50;;;;;;2609768;54;20046;-74
2021/08/18 12:14:46;;;;;;;6.82;1.50;;;21.20;61.30;;;;;;2610674;54;20031;-75
2021/08/18 12:17:13;;;;;;;5.28;1.38;;;21.30;60.20;;;;;;2610187;54;20083;-75
2021/08/18 12:19:44;;;;;;;2.47;1.42;;;21.30;59.30;;;;;;2610353;54;20031;-75
2021/08/18 12:22:19;;;;;;;2.22;1.58;;;21.30;59.80;;;;;;2610869;54;20031;-75
2021/08/18 12:24:48;;;;;;;1.50;1.05;;;21.30;60.10;;;;;;2610616;54;20125;-74
2021/08/18 12:27:22;;;;;;;1.70;1.35;;;21.40;59.40;;;;;;2609890;54;20122;-74
2021/08/18 12:30:03;;;;;;;3.00;1.27;;;21.30;59.20;;;;;;2610452;54;20074;-75
2021/08/18 12:32:29;;;;;;;1.60;1.30;;;21.20;59.00;;;;;;2610367;54;20031;-74
2021/08/18 12:35:00;;;;;;;2.88;1.40;;;21.00;59.80;;;;;;2610665;54;20069;-74
2021/08/18 12:37:31;;;;;;;1.63;1.08;;;20.80;61.10;;;;;;2610631;54;20040;-75
2021/08/18 12:40:03;;;;;;;2.70;1.52;;;20.70;61.40;;;;;;2610691;54;20042;-74
2021/08/18 12:42:34;;;;;;;1.63;1.35;;;20.60;61.40;;;;;;2609881;54;20079;-75
2021/08/18 12:45:08;;;;;;;4.57;1.70;;;20.50;62.90;;;;;;2611218;54;20034;-75
2021/08/18 12:47:37;;;;;;;2.38;1.60;;;20.60;62.60;;;;;;2611352;54;20038;-75
2021/08/18 12:50:05;;;;;;;3.47;1.90;;;20.70;62.60;;;;;;2611399;54;21070;-75
2021/08/18 12:52:31;;;;;;;2.25;1.40;;;20.80;62.80;;;;;;2610246;54;20041;-75